sensor_id;sensor_type;location;lat;lon;timestamp;P1;durP1;ratioP1;P2;durP2;ratioP2
33475;SDS011;19814;48.224;11.422;2023-04-15T00:00:16;4.75;;;1.23;;
33475;SDS011;19814;48.224;11.422;2023-04-15T00:02:41;6.47;;;1.83;;
33475;SDS011;19814;48.224;11.422;2023-04-15T00:05:08;4.68;;;1.60;;
33475;SDS011;19814;48.224;11.422;2023-04-15T00:07:34;7.20;;;1.80;;
33475;SDS011;19814;48.224;11.422;2023-04-15T00:10:00;5.32;;;1.65;;
33475;SDS011;19814;48.224;11.422;2023-04-15T00:12:26;3.38;;;1.00;;
33475;SDS011;19814;48.224;11.422;2023-04-15T00:14:52;4.93;;;1.95;;
33475;SDS011;19814;48.224;11.422;2023-04-15T00:17:18;3.03;;;1.77;;
33475;SDS011;19814;48.224;11.422;2023-04-15T00:19:44;4.80;;;1.65;;
33475;SDS011;19814;48.224;11.422;2023-04-15T00:22:10;5.80;;;1.83;;
33475;SDS011;19814;48.224;11.422;2023-04-15T00:24:36;3.55;;;1.30;;
33475;SDS011;19814;48.224;11.422;2023-04-15T00:27:02;3.83;;;1.50;;
33475;SDS011;19814;48.224;11.422;2023-04-15T00:29:28;4.13;;;1.65;;
33475;SDS011;19814;48.224;11.422;2023-04-15T00:31:54;3.78;;;1.52;;
33475;SDS011;19814;48.224;11.422;2023-04-15T00:34:20;6.25;;;2.20;;
33475;SDS011;19814;48.224;11.422;2023-04-15T00:36:46;3.38;;;1.80;;
33475;SDS011;19814;48.224;11.422;2023-04-15T00:39:12;7.13;;;2.38;;
33475;SDS011;19814;48.224;11.422;2023-04-15T00:41:37;4.35;;;2.10;;
33475;SDS011;19814;48.224;11.422;2023-04-15T00:44:04;5.00;;;1.67;;
33475;SDS011;19814;48.224;11.422;2023-04-15T00:46:30;3.95;;;1.83;;
33475;SDS011;19814;48.224;11.422;2023-04-15T00:48:59;4.97;;;2.00;;
33475;SDS011;19814;48.224;11.422;2023-04-15T00:51:26;4.97;;;1.88;;
33475;SDS011;19814;48.224;11.422;2023-04-15T00:53:52;3.50;;;1.40;;
33475;SDS011;19814;48.224;11.422;2023-04-15T00:56:18;3.33;;;1.70;;
33475;SDS011;19814;48.224;11.422;2023-04-15T00:58:46;3.38;;;1.38;;
33475;SDS011;19814;48.224;11.422;2023-04-15T01:01:12;4.70;;;1.88;;
33475;SDS011;19814;48.224;11.422;2023-04-15T01:03:37;4.20;;;1.98;;
33475;SDS011;19814;48.224;11.422;2023-04-15T01:06:03;4.30;;;1.83;;
33475;SDS011;19814;48.224;11.422;2023-04-15T01:08:29;6.50;;;2.20;;
33475;SDS011;19814;48.224;11.422;2023-04-15T01:10:55;7.97;;;1.80;;
33475;SDS011;19814;48.224;11.422;2023-04-15T01:13:22;4.28;;;2.10;;
33475;SDS011;19814;48.224;11.422;2023-04-15T01:15:48;5.85;;;2.17;;
33475;SDS011;19814;48.224;11.422;2023-04-15T01:18:14;5.10;;;1.90;;
33475;SDS011;19814;48.224;11.422;2023-04-15T01:20:40;3.65;;;1.70;;
33475;SDS011;19814;48.224;11.422;2023-04-15T01:23:05;4.20;;;1.60;;
33475;SDS011;19814;48.224;11.422;2023-04-15T01:25:31;4.15;;;1.77;;
33475;SDS011;19814;48.224;11.422;2023-04-15T01:27:58;3.17;;;2.05;;
33475;SDS011;19814;48.224;11.422;2023-04-15T01:30:24;3.53;;;1.95;;
33475;SDS011;19814;48.224;11.422;2023-04-15T01:32:51;3.63;;;1.85;;
33475;SDS011;19814;48.224;11.422;2023-04-15T01:35:16;6.65;;;2.42;;
33475;SDS011;19814;48.224;11.422;2023-04-15T01:37:42;3.80;;;1.92;;
33475;SDS011;19814;48.224;11.422;2023-04-15T01:40:08;5.95;;;2.10;;
33475;SDS011;19814;48.224;11.422;2023-04-15T01:42:34;3.13;;;1.73;;
33475;SDS011;19814;48.224;11.422;2023-04-15T01:45:01;4.35;;;2.10;;
33475;SDS011;19814;48.224;11.422;2023-04-15T01:47:27;6.32;;;2.28;;
33475;SDS011;19814;48.224;11.422;2023-04-15T01:49:52;6.78;;;1.92;;
33475;SDS011;19814;48.224;11.422;2023-04-15T01:52:18;3.80;;;1.73;;
33475;SDS011;19814;48.224;11.422;2023-04-15T01:54:44;4.95;;;2.28;;
33475;SDS011;19814;48.224;11.422;2023-04-15T01:57:10;5.78;;;1.85;;
33475;SDS011;19814;48.224;11.422;2023-04-15T01:59:36;5.88;;;2.35;;
33475;SDS011;19814;48.224;11.422;2023-04-15T02:02:02;3.88;;;2.17;;
33475;SDS011;19814;48.224;11.422;2023-04-15T02:04:28;6.68;;;2.15;;
33475;SDS011;19814;48.224;11.422;2023-04-15T02:06:53;3.92;;;2.15;;
33475;SDS011;19814;48.224;11.422;2023-04-15T02:09:19;4.65;;;1.90;;
33475;SDS011;19814;48.224;11.422;2023-04-15T02:11:45;5.35;;;2.05;;
33475;SDS011;19814;48.224;11.422;2023-04-15T02:14:10;4.47;;;1.77;;
33475;SDS011;19814;48.224;11.422;2023-04-15T02:16:36;6.55;;;2.40;;
33475;SDS011;19814;48.224;11.422;2023-04-15T02:19:02;3.55;;;1.80;;
33475;SDS011;19814;48.224;11.422;2023-04-15T02:21:28;3.50;;;1.67;;
33475;SDS011;19814;48.224;11.422;2023-04-15T02:23:54;7.85;;;2.00;;
33475;SDS011;19814;48.224;11.422;2023-04-15T02:26:20;5.13;;;2.10;;
33475;SDS011;19814;48.224;11.422;2023-04-15T02:28:46;4.15;;;1.95;;
33475;SDS011;19814;48.224;11.422;2023-04-15T02:31:12;5.95;;;1.90;;
33475;SDS011;19814;48.224;11.422;2023-04-15T02:33:37;5.15;;;2.35;;
33475;SDS011;19814;48.224;11.422;2023-04-15T02:36:03;4.85;;;2.42;;
33475;SDS011;19814;48.224;11.422;2023-04-15T02:38:29;5.03;;;1.92;;
33475;SDS011;19814;48.224;11.422;2023-04-15T02:40:55;4.80;;;2.33;;
33475;SDS011;19814;48.224;11.422;2023-04-15T02:43:21;4.90;;;2.13;;
33475;SDS011;19814;48.224;11.422;2023-04-15T02:45:47;4.40;;;2.13;;
33475;SDS011;19814;48.224;11.422;2023-04-15T02:48:13;4.65;;;1.60;;
33475;SDS011;19814;48.224;11.422;2023-04-15T02:50:40;4.72;;;1.95;;
33475;SDS011;19814;48.224;11.422;2023-04-15T02:53:06;4.13;;;2.00;;
33475;SDS011;19814;48.224;11.422;2023-04-15T02:55:31;4.28;;;1.70;;
33475;SDS011;19814;48.224;11.422;2023-04-15T02:57:57;3.15;;;1.70;;
33475;SDS011;19814;48.224;11.422;2023-04-15T03:00:24;2.80;;;1.67;;
33475;SDS011;19814;48.224;11.422;2023-04-15T03:02:51;4.53;;;1.63;;
33475;SDS011;19814;48.224;11.422;2023-04-15T03:05:22;3.42;;;1.80;;
33475;SDS011;19814;48.224;11.422;2023-04-15T03:07:50;4.65;;;1.80;;
33475;SDS011;19814;48.224;11.422;2023-04-15T03:10:16;3.47;;;1.80;;
33475;SDS011;19814;48.224;11.422;2023-04-15T03:12:42;4.25;;;1.92;;
33475;SDS011;19814;48.224;11.422;2023-04-15T03:15:07;4.82;;;2.00;;
33475;SDS011;19814;48.224;11.422;2023-04-15T03:17:34;6.43;;;2.15;;
33475;SDS011;19814;48.224;11.422;2023-04-15T03:20:00;4.47;;;1.95;;
33475;SDS011;19814;48.224;11.422;2023-04-15T03:22:27;4.82;;;2.03;;
33475;SDS011;19814;48.224;11.422;2023-04-15T03:24:53;7.97;;;2.05;;
33475;SDS011;19814;48.224;11.422;2023-04-15T03:27:18;6.65;;;1.60;;
33475;SDS011;19814;48.224;11.422;2023-04-15T03:29:44;4.43;;;1.90;;
33475;SDS011;19814;48.224;11.422;2023-04-15T03:32:10;4.65;;;1.70;;
33475;SDS011;19814;48.224;11.422;2023-04-15T03:34:36;3.58;;;1.90;;
33475;SDS011;19814;48.224;11.422;2023-04-15T03:37:02;7.03;;;1.90;;
33475;SDS011;19814;48.224;11.422;2023-04-15T03:39:29;4.88;;;1.88;;
33475;SDS011;19814;48.224;11.422;2023-04-15T03:41:55;3.28;;;1.73;;
33475;SDS011;19814;48.224;11.422;2023-04-15T03:44:21;4.93;;;2.15;;
33475;SDS011;19814;48.224;11.422;2023-04-15T03:46:47;3.53;;;1.42;;
33475;SDS011;19814;48.224;11.422;2023-04-15T03:49:12;3.70;;;1.58;;
33475;SDS011;19814;48.224;11.422;2023-04-15T03:51:38;3.38;;;1.80;;
33475;SDS011;19814;48.224;11.422;2023-04-15T03:54:03;4.13;;;1.67;;
33475;SDS011;19814;48.224;11.422;2023-04-15T03:56:29;5.22;;;1.90;;
33475;SDS011;19814;48.224;11.422;2023-04-15T03:58:55;8.18;;;2.15;;
33475;SDS011;19814;48.224;11.422;2023-04-15T04:01:21;4.38;;;1.88;;
33475;SDS011;19814;48.224;11.422;2023-04-15T04:03:47;4.82;;;2.08;;
33475;SDS011;19814;48.224;11.422;2023-04-15T04:06:12;7.50;;;2.08;;
33475;SDS011;19814;48.224;11.422;2023-04-15T04:08:38;4.07;;;1.77;;
33475;SDS011;19814;48.224;11.422;2023-04-15T04:11:04;3.42;;;1.67;;
33475;SDS011;19814;48.224;11.422;2023-04-15T04:13:29;5.68;;;1.90;;
33475;SDS011;19814;48.224;11.422;2023-04-15T04:15:55;3.08;;;1.70;;
33475;SDS011;19814;48.224;11.422;2023-04-15T04:18:21;3.55;;;1.60;;
33475;SDS011;19814;48.224;11.422;2023-04-15T04:20:46;6.07;;;1.90;;
33475;SDS011;19814;48.224;11.422;2023-04-15T04:23:12;3.38;;;1.58;;
33475;SDS011;19814;48.224;11.422;2023-04-15T04:25:37;3.45;;;1.42;;
33475;SDS011;19814;48.224;11.422;2023-04-15T04:28:03;2.75;;;1.42;;
33475;SDS011;19814;48.224;11.422;2023-04-15T04:30:28;4.88;;;1.83;;
33475;SDS011;19814;48.224;11.422;2023-04-15T04:32:54;4.45;;;1.60;;
33475;SDS011;19814;48.224;11.422;2023-04-15T04:35:19;3.67;;;1.70;;
33475;SDS011;19814;48.224;11.422;2023-04-15T04:37:45;3.80;;;1.70;;
33475;SDS011;19814;48.224;11.422;2023-04-15T04:40:11;6.53;;;2.00;;
33475;SDS011;19814;48.224;11.422;2023-04-15T04:42:37;3.13;;;1.50;;
33475;SDS011;19814;48.224;11.422;2023-04-15T04:45:03;4.03;;;1.55;;
33475;SDS011;19814;48.224;11.422;2023-04-15T04:47:29;2.65;;;1.15;;
33475;SDS011;19814;48.224;11.422;2023-04-15T04:49:54;2.88;;;1.30;;
33475;SDS011;19814;48.224;11.422;2023-04-15T04:52:20;3.63;;;1.35;;
33475;SDS011;19814;48.224;11.422;2023-04-15T04:54:45;2.92;;;1.00;;
33475;SDS011;19814;48.224;11.422;2023-04-15T04:57:11;4.03;;;1.45;;
33475;SDS011;19814;48.224;11.422;2023-04-15T04:59:37;4.80;;;1.10;;
33475;SDS011;19814;48.224;11.422;2023-04-15T05:02:03;3.10;;;1.33;;
33475;SDS011;19814;48.224;11.422;2023-04-15T05:04:29;2.83;;;1.30;;
33475;SDS011;19814;48.224;11.422;2023-04-15T05:06:56;2.47;;;1.05;;
33475;SDS011;19814;48.224;11.422;2023-04-15T05:09:22;1.80;;;1.02;;
33475;SDS011;19814;48.224;11.422;2023-04-15T05:11:47;2.35;;;1.30;;
33475;SDS011;19814;48.224;11.422;2023-04-15T05:14:13;5.32;;;1.33;;
33475;SDS011;19814;48.224;11.422;2023-04-15T05:16:38;5.00;;;1.85;;
33475;SDS011;19814;48.224;11.422;2023-04-15T05:19:04;3.17;;;1.00;;
33475;SDS011;19814;48.224;11.422;2023-04-15T05:21:30;1.80;;;1.00;;
33475;SDS011;19814;48.224;11.422;2023-04-15T05:23:55;4.80;;;1.27;;
33475;SDS011;19814;48.224;11.422;2023-04-15T05:26:21;2.92;;;1.02;;
33475;SDS011;19814;48.224;11.422;2023-04-15T05:28:48;1.83;;;1.10;;
33475;SDS011;19814;48.224;11.422;2023-04-15T05:31:14;4.85;;;1.30;;
33475;SDS011;19814;48.224;11.422;2023-04-15T05:33:40;2.90;;;1.13;;
33475;SDS011;19814;48.224;11.422;2023-04-15T05:36:05;2.28;;;1.15;;
33475;SDS011;19814;48.224;11.422;2023-04-15T05:38:31;3.17;;;1.58;;
33475;SDS011;19814;48.224;11.422;2023-04-15T05:40:57;2.92;;;1.20;;
33475;SDS011;19814;48.224;11.422;2023-04-15T05:43:22;5.10;;;1.30;;
33475;SDS011;19814;48.224;11.422;2023-04-15T05:45:48;2.30;;;0.90;;
33475;SDS011;19814;48.224;11.422;2023-04-15T05:48:13;1.90;;;0.93;;
33475;SDS011;19814;48.224;11.422;2023-04-15T05:50:40;3.17;;;0.88;;
33475;SDS011;19814;48.224;11.422;2023-04-15T05:53:06;1.70;;;1.02;;
33475;SDS011;19814;48.224;11.422;2023-04-15T05:55:32;2.60;;;1.08;;
33475;SDS011;19814;48.224;11.422;2023-04-15T05:57:58;3.10;;;1.05;;
33475;SDS011;19814;48.224;11.422;2023-04-15T06:00:23;4.50;;;1.33;;
33475;SDS011;19814;48.224;11.422;2023-04-15T06:02:49;1.98;;;1.00;;
33475;SDS011;19814;48.224;11.422;2023-04-15T06:05:14;1.60;;;0.80;;
33475;SDS011;19814;48.224;11.422;2023-04-15T06:07:40;4.22;;;1.42;;
33475;SDS011;19814;48.224;11.422;2023-04-15T06:10:07;5.70;;;1.10;;
33475;SDS011;19814;48.224;11.422;2023-04-15T06:12:33;1.17;;;0.90;;
33475;SDS011;19814;48.224;11.422;2023-04-15T06:14:59;2.05;;;0.75;;
33475;SDS011;19814;48.224;11.422;2023-04-15T06:17:24;4.40;;;0.98;;
33475;SDS011;19814;48.224;11.422;2023-04-15T06:19:50;2.17;;;0.80;;
33475;SDS011;19814;48.224;11.422;2023-04-15T06:22:20;3.10;;;0.90;;
33475;SDS011;19814;48.224;11.422;2023-04-15T06:24:47;3.90;;;0.85;;
33475;SDS011;19814;48.224;11.422;2023-04-15T06:27:14;1.92;;;0.80;;
33475;SDS011;19814;48.224;11.422;2023-04-15T06:29:40;1.98;;;0.60;;
33475;SDS011;19814;48.224;11.422;2023-04-15T06:32:05;1.83;;;0.80;;
33475;SDS011;19814;48.224;11.422;2023-04-15T06:34:31;2.60;;;0.90;;
33475;SDS011;19814;48.224;11.422;2023-04-15T06:36:57;1.60;;;0.70;;
33475;SDS011;19814;48.224;11.422;2023-04-15T06:39:22;1.70;;;0.85;;
33475;SDS011;19814;48.224;11.422;2023-04-15T06:41:48;1.23;;;0.60;;
33475;SDS011;19814;48.224;11.422;2023-04-15T06:44:13;4.85;;;0.90;;
33475;SDS011;19814;48.224;11.422;2023-04-15T06:46:40;2.30;;;0.55;;
33475;SDS011;19814;48.224;11.422;2023-04-15T06:49:06;1.83;;;0.60;;
33475;SDS011;19814;48.224;11.422;2023-04-15T06:51:33;2.03;;;0.88;;
33475;SDS011;19814;48.224;11.422;2023-04-15T06:54:00;3.42;;;0.98;;
33475;SDS011;19814;48.224;11.422;2023-04-15T06:56:26;2.05;;;0.90;;
33475;SDS011;19814;48.224;11.422;2023-04-15T06:58:52;1.45;;;0.90;;
33475;SDS011;19814;48.224;11.422;2023-04-15T07:01:17;1.35;;;0.60;;
33475;SDS011;19814;48.224;11.422;2023-04-15T07:03:43;2.03;;;0.70;;
33475;SDS011;19814;48.224;11.422;2023-04-15T07:06:10;3.53;;;1.17;;
33475;SDS011;19814;48.224;11.422;2023-04-15T07:08:35;0.80;;;0.65;;
33475;SDS011;19814;48.224;11.422;2023-04-15T07:11:01;1.65;;;0.68;;
33475;SDS011;19814;48.224;11.422;2023-04-15T07:13:29;4.40;;;0.95;;
33475;SDS011;19814;48.224;11.422;2023-04-15T07:15:55;1.95;;;0.60;;
33475;SDS011;19814;48.224;11.422;2023-04-15T07:18:21;1.52;;;0.75;;
33475;SDS011;19814;48.224;11.422;2023-04-15T07:20:46;1.92;;;0.95;;
33475;SDS011;19814;48.224;11.422;2023-04-15T07:23:12;2.33;;;0.80;;
33475;SDS011;19814;48.224;11.422;2023-04-15T07:25:38;1.88;;;1.10;;
33475;SDS011;19814;48.224;11.422;2023-04-15T07:28:03;0.63;;;0.55;;
33475;SDS011;19814;48.224;11.422;2023-04-15T07:30:29;4.00;;;0.60;;
33475;SDS011;19814;48.224;11.422;2023-04-15T07:32:55;1.50;;;0.73;;
33475;SDS011;19814;48.224;11.422;2023-04-15T07:35:22;1.27;;;0.88;;
33475;SDS011;19814;48.224;11.422;2023-04-15T07:37:49;1.80;;;0.88;;
33475;SDS011;19814;48.224;11.422;2023-04-15T07:40:15;2.50;;;0.88;;
33475;SDS011;19814;48.224;11.422;2023-04-15T07:42:41;2.13;;;0.80;;
33475;SDS011;19814;48.224;11.422;2023-04-15T07:45:07;2.83;;;1.13;;
33475;SDS011;19814;48.224;11.422;2023-04-15T07:47:33;1.05;;;0.57;;
33475;SDS011;19814;48.224;11.422;2023-04-15T07:49:59;2.63;;;1.17;;
33475;SDS011;19814;48.224;11.422;2023-04-15T07:52:24;1.38;;;0.73;;
33475;SDS011;19814;48.224;11.422;2023-04-15T07:54:50;2.63;;;0.88;;
33475;SDS011;19814;48.224;11.422;2023-04-15T07:57:15;3.65;;;0.80;;
33475;SDS011;19814;48.224;11.422;2023-04-15T07:59:41;1.05;;;0.68;;
33475;SDS011;19814;48.224;11.422;2023-04-15T08:02:07;2.97;;;0.95;;
33475;SDS011;19814;48.224;11.422;2023-04-15T08:04:33;1.15;;;0.95;;
33475;SDS011;19814;48.224;11.422;2023-04-15T08:06:59;1.77;;;0.80;;
33475;SDS011;19814;48.224;11.422;2023-04-15T08:09:24;1.25;;;0.70;;
33475;SDS011;19814;48.224;11.422;2023-04-15T08:11:51;4.15;;;1.30;;
33475;SDS011;19814;48.224;11.422;2023-04-15T08:14:17;0.85;;;0.50;;
33475;SDS011;19814;48.224;11.422;2023-04-15T08:16:43;1.20;;;0.85;;
33475;SDS011;19814;48.224;11.422;2023-04-15T08:19:08;1.45;;;0.60;;
33475;SDS011;19814;48.224;11.422;2023-04-15T08:21:34;2.17;;;0.77;;
33475;SDS011;19814;48.224;11.422;2023-04-15T08:24:00;1.38;;;0.60;;
33475;SDS011;19814;48.224;11.422;2023-04-15T08:26:27;3.40;;;1.10;;
33475;SDS011;19814;48.224;11.422;2023-04-15T08:28:52;1.65;;;0.70;;
33475;SDS011;19814;48.224;11.422;2023-04-15T08:31:18;2.80;;;1.20;;
33475;SDS011;19814;48.224;11.422;2023-04-15T08:33:44;1.33;;;0.77;;
33475;SDS011;19814;48.224;11.422;2023-04-15T08:36:10;1.33;;;0.80;;
33475;SDS011;19814;48.224;11.422;2023-04-15T08:38:36;2.72;;;0.77;;
33475;SDS011;19814;48.224;11.422;2023-04-15T08:41:14;1.98;;;0.90;;
33475;SDS011;19814;48.224;11.422;2023-04-15T08:43:56;1.33;;;0.70;;
33475;SDS011;19814;48.224;11.422;2023-04-15T08:46:25;1.48;;;0.85;;
33475;SDS011;19814;48.224;11.422;2023-04-15T08:48:50;3.92;;;0.80;;
33475;SDS011;19814;48.224;11.422;2023-04-15T08:51:20;2.10;;;0.88;;
33475;SDS011;19814;48.224;11.422;2023-04-15T08:53:46;1.38;;;0.65;;
33475;SDS011;19814;48.224;11.422;2023-04-15T08:56:13;5.15;;;1.00;;
33475;SDS011;19814;48.224;11.422;2023-04-15T08:58:40;1.67;;;1.00;;
33475;SDS011;19814;48.224;11.422;2023-04-15T09:01:10;1.43;;;0.77;;
33475;SDS011;19814;48.224;11.422;2023-04-15T09:03:37;2.00;;;0.90;;
33475;SDS011;19814;48.224;11.422;2023-04-15T09:06:03;2.00;;;0.88;;
33475;SDS011;19814;48.224;11.422;2023-04-15T09:08:30;1.75;;;0.80;;
33475;SDS011;19814;48.224;11.422;2023-04-15T09:10:56;2.55;;;0.93;;
33475;SDS011;19814;48.224;11.422;2023-04-15T09:13:21;1.92;;;1.08;;
33475;SDS011;19814;48.224;11.422;2023-04-15T09:15:47;1.95;;;1.10;;
33475;SDS011;19814;48.224;11.422;2023-04-15T09:18:13;2.00;;;1.05;;
33475;SDS011;19814;48.224;11.422;2023-04-15T09:20:54;4.97;;;1.58;;
33475;SDS011;19814;48.224;11.422;2023-04-15T09:23:20;1.85;;;1.00;;
33475;SDS011;19814;48.224;11.422;2023-04-15T09:25:46;1.45;;;0.88;;
33475;SDS011;19814;48.224;11.422;2023-04-15T09:28:13;1.75;;;1.02;;
33475;SDS011;19814;48.224;11.422;2023-04-15T09:30:39;1.65;;;1.10;;
33475;SDS011;19814;48.224;11.422;2023-04-15T09:35:38;1.23;;;0.85;;
33475;SDS011;19814;48.224;11.422;2023-04-15T09:38:04;2.45;;;1.05;;
33475;SDS011;19814;48.224;11.422;2023-04-15T09:40:35;3.17;;;1.23;;
33475;SDS011;19814;48.224;11.422;2023-04-15T09:43:04;2.25;;;1.13;;
33475;SDS011;19814;48.224;11.422;2023-04-15T09:45:30;2.55;;;1.20;;
33475;SDS011;19814;48.224;11.422;2023-04-15T09:47:57;2.90;;;1.25;;
33475;SDS011;19814;48.224;11.422;2023-04-15T09:50:28;2.85;;;1.20;;
33475;SDS011;19814;48.224;11.422;2023-04-15T09:52:53;3.80;;;1.42;;
33475;SDS011;19814;48.224;11.422;2023-04-15T09:55:20;3.05;;;0.98;;
33475;SDS011;19814;48.224;11.422;2023-04-15T09:57:46;1.08;;;0.90;;
33475;SDS011;19814;48.224;11.422;2023-04-15T10:00:12;3.97;;;1.35;;
33475;SDS011;19814;48.224;11.422;2023-04-15T10:02:39;3.75;;;1.20;;
33475;SDS011;19814;48.224;11.422;2023-04-15T10:05:06;2.78;;;1.27;;
33475;SDS011;19814;48.224;11.422;2023-04-15T10:07:34;2.60;;;1.30;;
33475;SDS011;19814;48.224;11.422;2023-04-15T10:10:00;2.97;;;1.42;;
33475;SDS011;19814;48.224;11.422;2023-04-15T10:12:28;3.40;;;1.42;;
33475;SDS011;19814;48.224;11.422;2023-04-15T10:14:57;4.43;;;1.88;;
33475;SDS011;19814;48.224;11.422;2023-04-15T10:17:25;4.22;;;1.50;;
33475;SDS011;19814;48.224;11.422;2023-04-15T10:19:59;2.88;;;1.40;;
33475;SDS011;19814;48.224;11.422;2023-04-15T10:22:26;2.90;;;1.33;;
33475;SDS011;19814;48.224;11.422;2023-04-15T10:24:52;2.85;;;1.38;;
33475;SDS011;19814;48.224;11.422;2023-04-15T10:27:19;2.88;;;1.17;;
33475;SDS011;19814;48.224;11.422;2023-04-15T10:29:46;3.42;;;1.58;;
33475;SDS011;19814;48.224;11.422;2023-04-15T10:32:13;5.10;;;1.60;;
33475;SDS011;19814;48.224;11.422;2023-04-15T10:34:43;3.47;;;1.50;;
33475;SDS011;19814;48.224;11.422;2023-04-15T10:37:10;2.85;;;1.40;;
33475;SDS011;19814;48.224;11.422;2023-04-15T10:42:22;6.65;;;1.63;;
33475;SDS011;19814;48.224;11.422;2023-04-15T10:44:48;6.28;;;1.80;;
33475;SDS011;19814;48.224;11.422;2023-04-15T10:47:17;3.75;;;2.00;;
33475;SDS011;19814;48.224;11.422;2023-04-15T10:49:48;4.15;;;1.80;;
33475;SDS011;19814;48.224;11.422;2023-04-15T10:52:16;4.20;;;2.03;;
33475;SDS011;19814;48.224;11.422;2023-04-15T10:54:47;4.47;;;2.13;;
33475;SDS011;19814;48.224;11.422;2023-04-15T10:57:14;3.70;;;1.98;;
33475;SDS011;19814;48.224;11.422;2023-04-15T10:59:58;5.20;;;1.70;;
33475;SDS011;19814;48.224;11.422;2023-04-15T11:05:21;3.10;;;1.63;;
33475;SDS011;19814;48.224;11.422;2023-04-15T11:08:07;3.70;;;1.65;;
33475;SDS011;19814;48.224;11.422;2023-04-15T11:13:01;3.90;;;1.58;;
33475;SDS011;19814;48.224;11.422;2023-04-15T11:17:59;3.53;;;1.83;;
33475;SDS011;19814;48.224;11.422;2023-04-15T11:20:37;5.35;;;2.05;;
33475;SDS011;19814;48.224;11.422;2023-04-15T11:23:05;5.10;;;1.83;;
33475;SDS011;19814;48.224;11.422;2023-04-15T11:25:31;4.20;;;1.70;;
33475;SDS011;19814;48.224;11.422;2023-04-15T11:27:58;7.60;;;2.30;;
33475;SDS011;19814;48.224;11.422;2023-04-15T11:30:26;6.70;;;1.98;;
33475;SDS011;19814;48.224;11.422;2023-04-15T11:32:55;4.63;;;1.90;;
33475;SDS011;19814;48.224;11.422;2023-04-15T11:35:22;5.18;;;2.13;;
33475;SDS011;19814;48.224;11.422;2023-04-15T11:37:48;2.88;;;1.77;;
33475;SDS011;19814;48.224;11.422;2023-04-15T11:40:15;4.40;;;1.95;;
33475;SDS011;19814;48.224;11.422;2023-04-15T11:42:44;6.55;;;2.30;;
33475;SDS011;19814;48.224;11.422;2023-04-15T11:45:11;5.00;;;2.08;;
33475;SDS011;19814;48.224;11.422;2023-04-15T11:47:40;2.93;;;1.60;;
33475;SDS011;19814;48.224;11.422;2023-04-15T11:50:39;3.97;;;1.90;;
33475;SDS011;19814;48.224;11.422;2023-04-15T11:53:00;3.80;;;1.85;;
33475;SDS011;19814;48.224;11.422;2023-04-15T11:55:27;3.50;;;1.55;;
33475;SDS011;19814;48.224;11.422;2023-04-15T12:00:38;5.07;;;1.80;;
33475;SDS011;19814;48.224;11.422;2023-04-15T12:03:24;2.80;;;1.70;;
33475;SDS011;19814;48.224;11.422;2023-04-15T12:06:11;2.97;;;1.63;;
33475;SDS011;19814;48.224;11.422;2023-04-15T12:13:56;2.42;;;1.40;;
33475;SDS011;19814;48.224;11.422;2023-04-15T12:16:23;5.95;;;1.65;;
33475;SDS011;19814;48.224;11.422;2023-04-15T12:18:52;4.72;;;1.75;;
33475;SDS011;19814;48.224;11.422;2023-04-15T12:21:23;3.17;;;1.85;;
33475;SDS011;19814;48.224;11.422;2023-04-15T12:23:50;3.65;;;1.70;;
33475;SDS011;19814;48.224;11.422;2023-04-15T12:26:17;3.85;;;1.02;;
33475;SDS011;19814;48.224;11.422;2023-04-15T12:28:52;2.65;;;1.35;;
33475;SDS011;19814;48.224;11.422;2023-04-15T12:31:34;3.38;;;1.25;;
33475;SDS011;19814;48.224;11.422;2023-04-15T12:34:00;2.88;;;1.40;;
33475;SDS011;19814;48.224;11.422;2023-04-15T12:36:27;2.60;;;1.50;;
33475;SDS011;19814;48.224;11.422;2023-04-15T12:38:55;1.83;;;1.08;;
33475;SDS011;19814;48.224;11.422;2023-04-15T12:41:21;1.95;;;0.77;;
33475;SDS011;19814;48.224;11.422;2023-04-15T12:43:48;4.10;;;1.25;;
33475;SDS011;19814;48.224;11.422;2023-04-15T12:46:14;1.55;;;1.00;;
33475;SDS011;19814;48.224;11.422;2023-04-15T12:48:40;1.75;;;1.17;;
33475;SDS011;19814;48.224;11.422;2023-04-15T12:51:05;1.13;;;0.90;;
33475;SDS011;19814;48.224;11.422;2023-04-15T12:53:31;2.70;;;1.40;;
33475;SDS011;19814;48.224;11.422;2023-04-15T12:55:56;2.38;;;1.38;;
33475;SDS011;19814;48.224;11.422;2023-04-15T12:58:22;3.42;;;1.55;;
33475;SDS011;19814;48.224;11.422;2023-04-15T13:00:47;2.42;;;1.13;;
33475;SDS011;19814;48.224;11.422;2023-04-15T13:03:13;2.13;;;1.10;;
33475;SDS011;19814;48.224;11.422;2023-04-15T13:05:40;4.45;;;1.38;;
33475;SDS011;19814;48.224;11.422;2023-04-15T13:08:06;2.72;;;1.35;;
33475;SDS011;19814;48.224;11.422;2023-04-15T13:10:31;5.25;;;1.50;;
33475;SDS011;19814;48.224;11.422;2023-04-15T13:12:57;2.80;;;1.20;;
33475;SDS011;19814;48.224;11.422;2023-04-15T13:15:23;2.97;;;1.60;;
33475;SDS011;19814;48.224;11.422;2023-04-15T13:17:49;2.92;;;1.33;;
33475;SDS011;19814;48.224;11.422;2023-04-15T13:20:15;3.75;;;1.70;;
33475;SDS011;19814;48.224;11.422;2023-04-15T13:22:41;4.07;;;1.40;;
33475;SDS011;19814;48.224;11.422;2023-04-15T13:25:07;4.47;;;1.88;;
33475;SDS011;19814;48.224;11.422;2023-04-15T13:27:33;3.05;;;1.58;;
33475;SDS011;19814;48.224;11.422;2023-04-15T13:29:59;4.63;;;1.60;;
33475;SDS011;19814;48.224;11.422;2023-04-15T13:32:24;4.03;;;1.90;;
33475;SDS011;19814;48.224;11.422;2023-04-15T13:34:50;6.80;;;2.30;;
33475;SDS011;19814;48.224;11.422;2023-04-15T13:37:16;2.75;;;1.52;;
33475;SDS011;19814;48.224;11.422;2023-04-15T13:39:42;6.55;;;2.42;;
33475;SDS011;19814;48.224;11.422;2023-04-15T13:42:07;3.88;;;2.03;;
33475;SDS011;19814;48.224;11.422;2023-04-15T13:44:33;2.97;;;1.55;;
33475;SDS011;19814;48.224;11.422;2023-04-15T13:46:59;4.13;;;1.90;;
33475;SDS011;19814;48.224;11.422;2023-04-15T13:49:25;4.15;;;1.58;;
33475;SDS011;19814;48.224;11.422;2023-04-15T13:51:50;4.25;;;1.60;;
33475;SDS011;19814;48.224;11.422;2023-04-15T13:54:16;2.55;;;1.23;;
33475;SDS011;19814;48.224;11.422;2023-04-15T13:56:41;1.95;;;1.10;;
33475;SDS011;19814;48.224;11.422;2023-04-15T13:59:07;1.95;;;1.10;;
33475;SDS011;19814;48.224;11.422;2023-04-15T14:01:33;3.63;;;1.30;;
33475;SDS011;19814;48.224;11.422;2023-04-15T14:03:59;1.85;;;1.10;;
33475;SDS011;19814;48.224;11.422;2023-04-15T14:06:24;2.08;;;1.02;;
33475;SDS011;19814;48.224;11.422;2023-04-15T14:08:51;3.65;;;1.63;;
33475;SDS011;19814;48.224;11.422;2023-04-15T14:11:17;2.78;;;1.20;;
33475;SDS011;19814;48.224;11.422;2023-04-15T14:13:42;2.15;;;1.27;;
33475;SDS011;19814;48.224;11.422;2023-04-15T14:16:08;2.13;;;1.00;;
33475;SDS011;19814;48.224;11.422;2023-04-15T14:18:34;2.55;;;1.38;;
33475;SDS011;19814;48.224;11.422;2023-04-15T14:21:01;2.83;;;0.98;;
33475;SDS011;19814;48.224;11.422;2023-04-15T14:23:26;2.53;;;1.33;;
33475;SDS011;19814;48.224;11.422;2023-04-15T14:25:52;1.73;;;1.10;;
33475;SDS011;19814;48.224;11.422;2023-04-15T14:28:18;2.72;;;1.05;;
33475;SDS011;19814;48.224;11.422;2023-04-15T14:30:44;3.22;;;1.42;;
33475;SDS011;19814;48.224;11.422;2023-04-15T14:33:09;3.20;;;1.48;;
33475;SDS011;19814;48.224;11.422;2023-04-15T14:35:35;2.03;;;1.15;;
33475;SDS011;19814;48.224;11.422;2023-04-15T14:38:01;1.42;;;1.05;;
33475;SDS011;19814;48.224;11.422;2023-04-15T14:40:27;4.68;;;1.50;;
33475;SDS011;19814;48.224;11.422;2023-04-15T14:42:53;4.55;;;1.70;;
33475;SDS011;19814;48.224;11.422;2023-04-15T14:45:18;2.65;;;1.30;;
33475;SDS011;19814;48.224;11.422;2023-04-15T14:47:44;3.28;;;1.60;;
33475;SDS011;19814;48.224;11.422;2023-04-15T14:50:09;2.75;;;1.55;;